South Hill, VA

4:12 AM EDT on May 24, 2017 (GMT -0400)
Mecklenburg-Brunswick Regional

Weather History for KAVC - January, 2013

Change the Weather History Date:

Thursday, January 10, 2013

  Actual Average (KEMV) Record (KEMV)
Temperature  
Mean Temperature 50 °F -  
Max Temperature 64 °F 47 °F 64 °F (2016)
Min Temperature 37 °F 28 °F 6 °F (2017)
Degree Days  
Heating Degree Days 14    
Moisture  
Dew Point 40 °F    
Average Humidity 75    
Maximum Humidity 100    
Minimum Humidity 37    
Precipitation  
Precipitation 0.00 in - - ()
Sea Level Pressure  
Sea Level Pressure 30.53 in    
Wind  
Wind Speed 2 mph (North)    
Max Wind Speed 8 mph    
Max Gust Speed -    
Visibility 10 miles    
Events      
Averages and records for this station are not official NWS values.
T = Trace of Precipitation, MM = Missing Value Source: NWS Daily Summary

Daily Weather History Graph

Daily Weather History Graph

Search for Another Location

Airport or City:

Trip Planner

Search our weather history database for the weather conditions in past years. The results will help you decide how hot, cold, wet, or windy it might be!

Date:

Astronomy

Jan. 10, 2013 Rise Set
Actual Time 7:24 AM EST 5:15 PM EST
Civil Twilight 6:56 AM EST 5:43 PM EST
Nautical Twilight 6:24 AM EST 6:15 PM EST
Astronomical Twilight 5:53 AM EST 6:46 PM EST
Moon 6:02 AM EST (1/10) 4:20 PM EST (1/10)
Length of Visible Light 10h 47m
Length of Day
9h 50m
Waning Crescent, 2% of the Moon is Illuminated
Jan 10
Waning Crescent
Jan 11
New
Jan 18
First Quarter
Jan 26
Full
Feb 3
Last Quarter

Hourly Weather History & Observations

Time (EST) Temp. Windchill Dew Point Humidity Pressure Visibility Wind Dir Wind Speed Gust Speed Precip Events Conditions
12:15 AM 48.2 °F - 48.2 °F 100% 30.45 in 10.0 mi Calm Calm - N/A   Clear
12:35 AM 48.2 °F - 48.2 °F 100% 30.45 in 10.0 mi Calm Calm - N/A   Clear
1:15 AM 48.2 °F - 48.2 °F 100% 30.46 in 10.0 mi Calm Calm - N/A   Clear
1:35 AM 48.2 °F - 48.2 °F 100% 30.46 in 10.0 mi West 3.5 mph - N/A   Clear
1:55 AM 48.2 °F - 48.2 °F 100% 30.47 in 10.0 mi Calm Calm - N/A   Clear
3:15 AM 46.4 °F - 46.4 °F 100% 30.48 in 10.0 mi Calm Calm - N/A   Clear
3:35 AM 46.4 °F - 46.4 °F 100% 30.48 in 10.0 mi Calm Calm - N/A   Clear
3:55 AM 44.6 °F 43.1 °F 44.6 °F 100% 30.49 in 10.0 mi NW 3.5 mph - N/A   Clear
4:15 AM 46.4 °F 45.2 °F 46.4 °F 100% 30.48 in 10.0 mi NNW 3.5 mph - N/A   Clear
4:35 AM 46.4 °F - 46.4 °F 100% 30.48 in 10.0 mi Calm Calm - N/A   Clear
4:55 AM 46.4 °F 44.3 °F 46.4 °F 100% 30.48 in 10.0 mi NNW 4.6 mph - N/A   Clear
5:15 AM 44.6 °F 43.1 °F 44.6 °F 100% 30.48 in 10.0 mi NNW 3.5 mph - N/A   Clear
5:35 AM 44.6 °F - 44.6 °F 100% 30.50 in 10.0 mi Calm Calm - N/A   Clear
5:55 AM 44.6 °F - 44.6 °F 100% 30.51 in 10.0 mi Calm Calm - N/A   Clear
6:15 AM 44.6 °F 43.1 °F 44.6 °F 100% 30.52 in 10.0 mi NNW 3.5 mph - N/A   Clear
6:35 AM 44.6 °F 42.2 °F 44.6 °F 100% 30.53 in 10.0 mi North 4.6 mph - N/A   Clear
6:55 AM 44.6 °F 42.2 °F 44.6 °F 100% 30.54 in 10.0 mi North 4.6 mph - N/A   Clear
7:15 AM 44.6 °F 42.2 °F 44.6 °F 100% 30.55 in 10.0 mi North 4.6 mph - N/A   Clear
7:35 AM 44.6 °F 41.4 °F 44.6 °F 100% 30.56 in 10.0 mi North 5.8 mph - N/A   Clear
7:55 AM 44.6 °F 41.4 °F 44.6 °F 100% 30.56 in 10.0 mi North 5.8 mph - N/A   Clear
8:35 AM 48.2 °F - 48.2 °F 100% 30.58 in 10.0 mi North 4.6 mph - N/A   Clear
9:15 AM 51.8 °F - 48.2 °F 88% 30.59 in 10.0 mi Calm Calm - N/A   Clear
9:35 AM 51.8 °F - 46.4 °F 82% 30.60 in 10.0 mi Calm Calm - N/A   Clear
9:55 AM 51.8 °F - 44.6 °F 76% 30.60 in 10.0 mi Calm Calm - N/A   Clear
10:35 AM 57.2 °F - 41.0 °F 55% 30.60 in 10.0 mi NE 5.8 mph - N/A   Clear
10:55 AM 55.4 °F - 37.4 °F 51% 30.59 in 10.0 mi NE 6.9 mph - N/A   Clear
11:15 AM 55.4 °F - 37.4 °F 51% 30.59 in 10.0 mi Calm Calm - N/A   Clear
11:35 AM 59.0 °F - 35.6 °F 42% 30.58 in 10.0 mi NE 3.5 mph - N/A   Clear
11:55 AM 59.0 °F - 35.6 °F 42% 30.56 in 10.0 mi Calm Calm - N/A   Clear
12:15 PM 60.8 °F - 37.4 °F 42% 30.55 in 10.0 mi NE 4.6 mph - N/A   Clear
12:35 PM 62.6 °F - 37.4 °F 39% 30.54 in 10.0 mi NNE 8.1 mph - N/A   Clear
12:55 PM 64.4 °F - 37.4 °F 37% 30.53 in 10.0 mi North 5.8 mph - N/A   Clear
1:15 PM 62.6 °F - 37.4 °F 39% 30.54 in 10.0 mi Calm Calm - N/A   Clear
1:35 PM 64.4 °F - 37.4 °F 37% 30.54 in 10.0 mi NNE 5.8 mph - N/A   Clear
1:55 PM 64.4 °F - 37.4 °F 37% 30.53 in 10.0 mi NE 3.5 mph - N/A   Clear
2:15 PM 62.6 °F - 35.6 °F 37% 30.53 in 10.0 mi NNE 3.5 mph - N/A   Clear
2:55 PM 60.8 °F - 35.6 °F 39% 30.53 in 10.0 mi Calm Calm - N/A   Clear
3:15 PM 62.6 °F - 35.6 °F 37% 30.53 in 10.0 mi Calm Calm - N/A   Clear
3:35 PM 60.8 °F - 35.6 °F 39% 30.54 in 10.0 mi Calm Calm - N/A   Clear
3:55 PM 62.6 °F - 37.4 °F 39% 30.54 in 10.0 mi Calm Calm - N/A   Clear
4:15 PM 62.6 °F - 37.4 °F 39% 30.54 in 10.0 mi Calm Calm - N/A   Clear
4:35 PM 57.2 °F - 35.6 °F 44% 30.53 in 10.0 mi Calm Calm - N/A   Clear
4:55 PM 55.4 °F - 35.6 °F 47% 30.53 in 10.0 mi Calm Calm - N/A   Clear
5:15 PM 51.8 °F - 35.6 °F 54% 30.53 in 10.0 mi Calm Calm - N/A   Clear
5:55 PM 44.6 °F - 35.6 °F 71% 30.54 in 10.0 mi Calm Calm - N/A   Clear
6:15 PM 44.6 °F - 35.6 °F 71% 30.54 in 10.0 mi Calm Calm - N/A   Clear
6:35 PM 44.6 °F - 37.4 °F 76% 30.54 in 10.0 mi Calm Calm - N/A   Clear
7:15 PM 41.0 °F - 35.6 °F 81% 30.54 in 10.0 mi Calm Calm - N/A   Clear
7:35 PM 39.2 °F - 35.6 °F 87% 30.54 in 10.0 mi Calm Calm - N/A   Clear
7:55 PM 39.2 °F - 35.6 °F 87% 30.53 in 10.0 mi Calm Calm - N/A   Clear
8:15 PM 39.2 °F - 35.6 °F 87% 30.53 in 10.0 mi Calm Calm - N/A   Clear
8:35 PM 42.8 °F - 35.6 °F 76% 30.53 in 10.0 mi Calm Calm - N/A   Clear
8:55 PM 42.8 °F - 35.6 °F 76% 30.54 in 10.0 mi Calm Calm - N/A   Clear
9:15 PM 39.2 °F - 33.8 °F 81% 30.54 in 10.0 mi Calm Calm - N/A   Clear
9:35 PM 39.2 °F - 33.8 °F 81% 30.54 in 10.0 mi Calm Calm - N/A   Clear
9:55 PM 39.2 °F - 33.8 °F 81% 30.54 in 10.0 mi Calm Calm - N/A   Clear
10:15 PM 39.2 °F - 33.8 °F 81% 30.54 in 10.0 mi Calm Calm - N/A   Clear
10:35 PM 37.4 °F - 33.8 °F 87% 30.54 in 10.0 mi Calm Calm - N/A   Clear
10:55 PM 37.4 °F - 33.8 °F 87% 30.53 in 10.0 mi Calm Calm - N/A   Clear
11:15 PM 37.4 °F - 32.0 °F 81% 30.53 in 10.0 mi Calm Calm - N/A   Clear
11:35 PM 37.4 °F - 32.0 °F 81% 30.53 in 10.0 mi Calm Calm - N/A   Clear
11:55 PM 37.4 °F - 32.0 °F 81% 30.53 in 10.0 mi Calm Calm - N/A   Clear